Santa Paula, CA

1:55 PM PDT on August 27, 2016 (GMT -0700)
Palm | | Change Station

Elev 285 ft 34.35 °N, 119.07 °W | Updated 13 minutes ago

Partly Cloudy
Partly Cloudy
82.8 °F
Feels Like 83 °F
N
5.3
Wind Variable Wind from West

Today
High -- | Low -- °F
--% Chance of Precip.
Yesterday
High -- | Low -- °F
Precip. -- in
Pressure 30.01 in
Visibility 10.0 miles
Clouds Few 2900 ft
Heat Index 83 °F
Dew Point 59 °F
Humidity 44%
Rainfall 0.00 in
Snow Depth Not available.
6:26 AM 7:28 PM
Waning Crescent, 21% visible
METAR KCMA 271955Z 24007KT 10SM FEW029 24/14 A2998 RMK AO2 SLP161 T02390144
Pressure 30.01 in
Visibility 10.0 miles
Clouds Few 2900 ft
Heat Index 83 °F
Dew Point 59 °F
Humidity 44%
Rainfall 0.00 in
Snow Depth Not available.
6:26 AM 7:28 PM
Waning Crescent, 21% visible
METAR KCMA 271955Z 24007KT 10SM FEW029 24/14 A2998 RMK AO2 SLP161 T02390144

10-Day Weather Forecast

Almanac

Astronomy

Aug. 27, 2016 Rise Set
Actual Time
Civil Twilight
Nautical Twilight
Astronomical Twilight
Moon
Length of Visible Light
Length of Day
Tomorrow will be .
, % of the Moon is Illuminated

Today's Extremes

State Highs State Lows

Community

WunderPhotos

Upload Photos

1,935,438 photos uploaded!

WunderBlog® & News

Nearby

Air Quality

  Air Quality AQ Index Pollutant
Not available.

Snow Depth

Station Depth Elevation

Earthquake Activity

City Distance Mag. Time & Date
Minimum magnitude displayed is 2.5.

Coastal Water Temperatures

Place Temperature

Stations

Nearby Weather Stations

Station Location Temp. Windchill Dew Point Humidity Wind Precip. Elev Updated Type
                   

Watches & Warnings

There are currently no watches in effect.